TAM3493 SBFZ-SBTE
Flight info
| Callsign | TAM3493 |
|---|---|
| Flight time | 0h 49m |
| Altitude | 34000 |
| Route | PUBOR UZ66 TNA |
| Aircraft | A20N/M-SDE2E3FGHIRWXY/LB1 |
Departure
| Time | 2026-04-24 00:10 |
|---|---|
| Airport | Pinto Martins International Airport (SBFZ) |
Arrival
| Time | 2026-04-24 00:59 |
|---|---|
| Airport | Senador Petrônio Portela Airport (SBTE) |
| Time | Latitude | Longitude | Altitude | Speed | Heading |
|---|---|---|---|---|---|
| 2026-04-23 23:49 | -3.77792 | -38.54001 | 90 ft | 0 kts | 204° |
| 2026-04-24 00:01 | -3.77788 | -38.53999 | 90 ft | 2 kts | 204° |
| 2026-04-24 00:02 | -3.77774 | -38.53993 | 90 ft | 2 kts | 204° |
| 2026-04-24 00:02 | -3.77760 | -38.53987 | 90 ft | 2 kts | 204° |
| 2026-04-24 00:02 | -3.77746 | -38.53981 | 90 ft | 2 kts | 204° |
| 2026-04-24 00:02 | -3.77732 | -38.53974 | 90 ft | 2 kts | 218° |
| 2026-04-24 00:03 | -3.77722 | -38.53963 | 90 ft | 2 kts | 238° |
| 2026-04-24 00:03 | -3.77716 | -38.53949 | 90 ft | 2 kts | 258° |
| 2026-04-24 00:03 | -3.77715 | -38.53942 | 90 ft | 0 kts | 269° |
| 2026-04-24 00:03 | -3.77712 | -38.53956 | 90 ft | 4 kts | 288° |
| 2026-04-24 00:04 | -3.77708 | -38.53972 | 90 ft | 0 kts | 287° |
| 2026-04-24 00:04 | -3.77708 | -38.53971 | 90 ft | 0 kts | 287° |
| 2026-04-24 00:06 | -3.77707 | -38.53973 | 90 ft | 0 kts | 287° |
| 2026-04-24 00:06 | -3.77698 | -38.54003 | 90 ft | 11 kts | 286° |
| 2026-04-24 00:06 | -3.77675 | -38.54084 | 90 ft | 12 kts | 286° |
| 2026-04-24 00:06 | -3.77651 | -38.54172 | 90 ft | 13 kts | 286° |
| 2026-04-24 00:07 | -3.77623 | -38.54270 | 88 ft | 15 kts | 286° |
| 2026-04-24 00:07 | -3.77602 | -38.54343 | 90 ft | 8 kts | 294° |
| 2026-04-24 00:07 | -3.77562 | -38.54367 | 89 ft | 7 kts | 347° |
| 2026-04-24 00:07 | -3.77501 | -38.54380 | 88 ft | 9 kts | 353° |
| 2026-04-24 00:08 | -3.77437 | -38.54375 | 87 ft | 3 kts | 14° |
| 2026-04-24 00:08 | -3.77436 | -38.54375 | 87 ft | 0 kts | 14° |
| 2026-04-24 00:08 | -3.77431 | -38.54374 | 87 ft | 4 kts | 14° |
| 2026-04-24 00:08 | -3.77374 | -38.54357 | 87 ft | 9 kts | 20° |
| 2026-04-24 00:09 | -3.77348 | -38.54319 | 87 ft | 1 kts | 99° |
| 2026-04-24 00:09 | -3.77348 | -38.54318 | 87 ft | 0 kts | 99° |
| 2026-04-24 00:09 | -3.77351 | -38.54304 | 87 ft | 17 kts | 99° |
| 2026-04-24 00:10 | -3.77453 | -38.53913 | 87 ft | 95 kts | 104° |
| 2026-04-24 00:10 | -3.77674 | -38.53068 | 91 ft | 155 kts | 104° |
| 2026-04-24 00:10 | -3.77966 | -38.51956 | 506 ft | 170 kts | 105° |
| 2026-04-24 00:10 | -3.78309 | -38.50831 | 1152 ft | 173 kts | 106° |
| 2026-04-24 00:11 | -3.78660 | -38.49644 | 1648 ft | 185 kts | 104° |
| 2026-04-24 00:11 | -3.79073 | -38.48356 | 1993 ft | 208 kts | 117° |
| 2026-04-24 00:11 | -3.80177 | -38.47339 | 2488 ft | 231 kts | 156° |
| 2026-04-24 00:11 | -3.81844 | -38.47187 | 2964 ft | 257 kts | 185° |
| 2026-04-24 00:12 | -3.83656 | -38.47499 | 3632 ft | 267 kts | 185° |
| 2026-04-24 00:12 | -3.85492 | -38.47760 | 4474 ft | 270 kts | 184° |
| 2026-04-24 00:12 | -3.87380 | -38.48001 | 5324 ft | 272 kts | 183° |
| 2026-04-24 00:12 | -3.89251 | -38.48228 | 6152 ft | 275 kts | 183° |
| 2026-04-24 00:13 | -3.91150 | -38.48455 | 6947 ft | 278 kts | 183° |
| 2026-04-24 00:13 | -3.93103 | -38.48687 | 7765 ft | 282 kts | 183° |
| 2026-04-24 00:13 | -3.95042 | -38.49052 | 8511 ft | 290 kts | 198° |
| 2026-04-24 00:13 | -3.96517 | -38.50028 | 9130 ft | 302 kts | 225° |
| 2026-04-24 00:14 | -3.96785 | -38.50330 | 9273 ft | 304 kts | 230° |
| 2026-04-24 00:14 | -3.97684 | -38.52262 | 10024 ft | 310 kts | 257° |
| 2026-04-24 00:14 | -3.98064 | -38.54404 | 10620 ft | 320 kts | 259° |
| 2026-04-24 00:14 | -3.98450 | -38.56628 | 11127 ft | 331 kts | 259° |
| 2026-04-24 00:15 | -3.98866 | -38.58924 | 11820 ft | 335 kts | 259° |
| 2026-04-24 00:15 | -3.99300 | -38.61226 | 12525 ft | 337 kts | 258° |
| 2026-04-24 00:15 | -3.99739 | -38.63514 | 13223 ft | 339 kts | 258° |
| 2026-04-24 00:15 | -4.00191 | -38.65851 | 13855 ft | 343 kts | 258° |
| 2026-04-24 00:16 | -4.00643 | -38.68182 | 14428 ft | 348 kts | 258° |
| 2026-04-24 00:16 | -4.01110 | -38.70584 | 15042 ft | 351 kts | 258° |
| 2026-04-24 00:16 | -4.01572 | -38.72960 | 15608 ft | 354 kts | 258° |
| 2026-04-24 00:16 | -4.02051 | -38.75421 | 16117 ft | 359 kts | 258° |
| 2026-04-24 00:17 | -4.02692 | -38.78709 | 16811 ft | 365 kts | 258° |
| 2026-04-24 00:17 | -4.03012 | -38.80366 | 17133 ft | 367 kts | 258° |
| 2026-04-24 00:17 | -4.03497 | -38.82887 | 17658 ft | 370 kts | 258° |
| 2026-04-24 00:17 | -4.03981 | -38.85393 | 18162 ft | 373 kts | 258° |
| 2026-04-24 00:18 | -4.04476 | -38.87957 | 18659 ft | 376 kts | 258° |
| 2026-04-24 00:18 | -4.04973 | -38.90530 | 19194 ft | 377 kts | 258° |
| 2026-04-24 00:18 | -4.05417 | -38.93096 | 19693 ft | 379 kts | 261° |
| 2026-04-24 00:18 | -4.05776 | -38.95721 | 20191 ft | 382 kts | 262° |
| 2026-04-24 00:19 | -4.06120 | -38.98361 | 20686 ft | 384 kts | 262° |
| 2026-04-24 00:19 | -4.06463 | -39.01004 | 21166 ft | 386 kts | 262° |
| 2026-04-24 00:19 | -4.06810 | -39.03671 | 21650 ft | 388 kts | 262° |
| 2026-04-24 00:19 | -4.07159 | -39.06341 | 22117 ft | 391 kts | 262° |
| 2026-04-24 00:20 | -4.07518 | -39.09077 | 22586 ft | 394 kts | 262° |
| 2026-04-24 00:20 | -4.07873 | -39.11776 | 23048 ft | 397 kts | 262° |
| 2026-04-24 00:20 | -4.08236 | -39.14526 | 23550 ft | 398 kts | 262° |
| 2026-04-24 00:20 | -4.08597 | -39.17273 | 24029 ft | 401 kts | 263° |
| 2026-04-24 00:21 | -4.08961 | -39.20041 | 24483 ft | 404 kts | 263° |
| 2026-04-24 00:21 | -4.09330 | -39.22846 | 24949 ft | 407 kts | 263° |
| 2026-04-24 00:21 | -4.09700 | -39.25667 | 25431 ft | 409 kts | 263° |
| 2026-04-24 00:21 | -4.10071 | -39.28495 | 25871 ft | 412 kts | 263° |
| 2026-04-24 00:22 | -4.10445 | -39.31343 | 26296 ft | 415 kts | 263° |
| 2026-04-24 00:22 | -4.10822 | -39.34216 | 26739 ft | 417 kts | 263° |
| 2026-04-24 00:22 | -4.11202 | -39.37112 | 27194 ft | 419 kts | 263° |
| 2026-04-24 00:22 | -4.11584 | -39.40020 | 27623 ft | 421 kts | 263° |
| 2026-04-24 00:23 | -4.11966 | -39.42934 | 28049 ft | 423 kts | 264° |
| 2026-04-24 00:23 | -4.12348 | -39.45853 | 28453 ft | 425 kts | 264° |
| 2026-04-24 00:23 | -4.12730 | -39.48772 | 28831 ft | 428 kts | 264° |
| 2026-04-24 00:23 | -4.13117 | -39.51743 | 29222 ft | 429 kts | 264° |
| 2026-04-24 00:24 | -4.13376 | -39.53722 | 29469 ft | 431 kts | 263° |
| 2026-04-24 00:24 | -4.13763 | -39.56689 | 29826 ft | 433 kts | 263° |
| 2026-04-24 00:24 | -4.14159 | -39.59711 | 30159 ft | 435 kts | 263° |
| 2026-04-24 00:24 | -4.14549 | -39.62694 | 30474 ft | 438 kts | 263° |
| 2026-04-24 00:25 | -4.14947 | -39.65725 | 30790 ft | 440 kts | 263° |
| 2026-04-24 00:25 | -4.15341 | -39.68747 | 31195 ft | 439 kts | 263° |
| 2026-04-24 00:25 | -4.15739 | -39.71790 | 31673 ft | 437 kts | 263° |
| 2026-04-24 00:25 | -4.16128 | -39.74768 | 32120 ft | 435 kts | 263° |
| 2026-04-24 00:26 | -4.16520 | -39.77766 | 32488 ft | 435 kts | 263° |
| 2026-04-24 00:26 | -4.16925 | -39.80768 | 32810 ft | 436 kts | 262° |
| 2026-04-24 00:26 | -4.17469 | -39.83746 | 33114 ft | 438 kts | 258° |
| 2026-04-24 00:26 | -4.18204 | -39.86728 | 33427 ft | 439 kts | 255° |
| 2026-04-24 00:27 | -4.19066 | -39.89651 | 33743 ft | 441 kts | 253° |
| 2026-04-24 00:27 | -4.19952 | -39.92578 | 33945 ft | 443 kts | 253° |
| 2026-04-24 00:27 | -4.21749 | -39.98508 | 33947 ft | 444 kts | 253° |
| 2026-04-24 00:28 | -4.23524 | -40.04400 | 33953 ft | 443 kts | 253° |
| 2026-04-24 00:28 | -4.25291 | -40.10284 | 33954 ft | 443 kts | 254° |
| 2026-04-24 00:29 | -4.27067 | -40.16205 | 33956 ft | 442 kts | 254° |
| 2026-04-24 00:29 | -4.28823 | -40.22066 | 33957 ft | 442 kts | 254° |
| 2026-04-24 00:30 | -4.30589 | -40.27959 | 33957 ft | 443 kts | 254° |
| 2026-04-24 00:30 | -4.32351 | -40.33844 | 33959 ft | 443 kts | 254° |
| 2026-04-24 00:31 | -4.34125 | -40.39767 | 33956 ft | 442 kts | 254° |
| 2026-04-24 00:31 | -4.35879 | -40.45624 | 33956 ft | 442 kts | 254° |
| 2026-04-24 00:32 | -4.37650 | -40.51540 | 33957 ft | 442 kts | 254° |
| 2026-04-24 00:32 | -4.38636 | -40.54835 | 33962 ft | 442 kts | 254° |
| 2026-04-24 00:33 | -4.40389 | -40.60695 | 33970 ft | 442 kts | 254° |
| 2026-04-24 00:33 | -4.42129 | -40.66517 | 33978 ft | 441 kts | 254° |
| 2026-04-24 00:34 | -4.43888 | -40.72401 | 33983 ft | 440 kts | 254° |
| 2026-04-24 00:34 | -4.45636 | -40.78251 | 33987 ft | 445 kts | 254° |
| 2026-04-24 00:35 | -4.47315 | -40.84322 | 33984 ft | 459 kts | 259° |
| 2026-04-24 00:35 | -4.48530 | -40.90670 | 33987 ft | 470 kts | 261° |
| 2026-04-24 00:36 | -4.49122 | -40.93879 | 33843 ft | 477 kts | 260° |
| 2026-04-24 00:36 | -4.49731 | -40.97132 | 33548 ft | 469 kts | 260° |
| 2026-04-24 00:36 | -4.50338 | -41.00322 | 33260 ft | 458 kts | 260° |
| 2026-04-24 00:36 | -4.50925 | -41.03386 | 32980 ft | 452 kts | 260° |
| 2026-04-24 00:37 | -4.51517 | -41.06466 | 32690 ft | 449 kts | 260° |
| 2026-04-24 00:37 | -4.52110 | -41.09541 | 32390 ft | 448 kts | 260° |
| 2026-04-24 00:37 | -4.52900 | -41.13633 | 31768 ft | 445 kts | 260° |
| 2026-04-24 00:37 | -4.53290 | -41.15654 | 31378 ft | 445 kts | 260° |
| 2026-04-24 00:38 | -4.53875 | -41.18676 | 30758 ft | 445 kts | 260° |
| 2026-04-24 00:38 | -4.54457 | -41.21690 | 30136 ft | 445 kts | 260° |
| 2026-04-24 00:38 | -4.55046 | -41.24739 | 29595 ft | 442 kts | 260° |
| 2026-04-24 00:38 | -4.55622 | -41.27718 | 29099 ft | 439 kts | 260° |
| 2026-04-24 00:39 | -4.56204 | -41.30729 | 28605 ft | 436 kts | 261° |
| 2026-04-24 00:39 | -4.56774 | -41.33682 | 28121 ft | 433 kts | 261° |
| 2026-04-24 00:39 | -4.57346 | -41.36647 | 27618 ft | 430 kts | 260° |
| 2026-04-24 00:39 | -4.57910 | -41.39581 | 27123 ft | 428 kts | 260° |
| 2026-04-24 00:40 | -4.58473 | -41.42502 | 26613 ft | 426 kts | 260° |
| 2026-04-24 00:40 | -4.59032 | -41.45398 | 26114 ft | 424 kts | 260° |
| 2026-04-24 00:40 | -4.59592 | -41.48307 | 25605 ft | 422 kts | 260° |
| 2026-04-24 00:40 | -4.60148 | -41.51187 | 25101 ft | 421 kts | 259° |
| 2026-04-24 00:41 | -4.60697 | -41.54039 | 24616 ft | 418 kts | 259° |
| 2026-04-24 00:41 | -4.61250 | -41.56908 | 24129 ft | 416 kts | 259° |
| 2026-04-24 00:41 | -4.61796 | -41.59736 | 23646 ft | 414 kts | 259° |
| 2026-04-24 00:41 | -4.62340 | -41.62562 | 23159 ft | 412 kts | 259° |
| 2026-04-24 00:42 | -4.62877 | -41.65349 | 22667 ft | 411 kts | 259° |
| 2026-04-24 00:42 | -4.63421 | -41.68169 | 22185 ft | 409 kts | 259° |
| 2026-04-24 00:42 | -4.63960 | -41.70968 | 21702 ft | 407 kts | 259° |
| 2026-04-24 00:42 | -4.64496 | -41.73756 | 21240 ft | 405 kts | 259° |
| 2026-04-24 00:43 | -4.65031 | -41.76529 | 20757 ft | 403 kts | 259° |
| 2026-04-24 00:43 | -4.65556 | -41.79258 | 20293 ft | 401 kts | 259° |
| 2026-04-24 00:43 | -4.66087 | -41.82016 | 19810 ft | 400 kts | 259° |
| 2026-04-24 00:43 | -4.66609 | -41.84729 | 19336 ft | 398 kts | 259° |
| 2026-04-24 00:44 | -4.67131 | -41.87443 | 18858 ft | 396 kts | 259° |
| 2026-04-24 00:44 | -4.67645 | -41.90113 | 18403 ft | 394 kts | 258° |
| 2026-04-24 00:44 | -4.68167 | -41.92828 | 17933 ft | 392 kts | 258° |
| 2026-04-24 00:44 | -4.68675 | -41.95472 | 17476 ft | 389 kts | 258° |
| 2026-04-24 00:45 | -4.69189 | -41.98145 | 17040 ft | 387 kts | 258° |
| 2026-04-24 00:45 | -4.69694 | -42.00773 | 16596 ft | 384 kts | 258° |
| 2026-04-24 00:45 | -4.70191 | -42.03362 | 16171 ft | 381 kts | 258° |
| 2026-04-24 00:45 | -4.70695 | -42.05988 | 15713 ft | 379 kts | 258° |
| 2026-04-24 00:46 | -4.71192 | -42.08571 | 15262 ft | 377 kts | 258° |
| 2026-04-24 00:46 | -4.71679 | -42.11111 | 14828 ft | 374 kts | 258° |
| 2026-04-24 00:46 | -4.72173 | -42.13684 | 14388 ft | 371 kts | 258° |
| 2026-04-24 00:46 | -4.72657 | -42.16209 | 13947 ft | 369 kts | 258° |
| 2026-04-24 00:47 | -4.73139 | -42.18724 | 13515 ft | 366 kts | 258° |
| 2026-04-24 00:47 | -4.73614 | -42.21199 | 13089 ft | 363 kts | 258° |
| 2026-04-24 00:47 | -4.74093 | -42.23689 | 12650 ft | 361 kts | 258° |
| 2026-04-24 00:47 | -4.74561 | -42.26129 | 12234 ft | 358 kts | 258° |
| 2026-04-24 00:48 | -4.75031 | -42.28583 | 11793 ft | 355 kts | 258° |
| 2026-04-24 00:48 | -4.75142 | -42.29162 | 11691 ft | 355 kts | 258° |
| 2026-04-24 00:48 | -4.75317 | -42.30076 | 11530 ft | 354 kts | 258° |
| 2026-04-24 00:48 | -4.75778 | -42.32484 | 11100 ft | 351 kts | 258° |
| 2026-04-24 00:49 | -4.76237 | -42.34882 | 10676 ft | 349 kts | 258° |
| 2026-04-24 00:49 | -4.76691 | -42.37249 | 10255 ft | 346 kts | 258° |
| 2026-04-24 00:49 | -4.77142 | -42.39606 | 9947 ft | 339 kts | 258° |
| 2026-04-24 00:49 | -4.77579 | -42.41892 | 9751 ft | 329 kts | 258° |
| 2026-04-24 00:50 | -4.78006 | -42.44122 | 9487 ft | 322 kts | 258° |
| 2026-04-24 00:50 | -4.78423 | -42.46304 | 9171 ft | 316 kts | 258° |
| 2026-04-24 00:50 | -4.78832 | -42.48449 | 8690 ft | 307 kts | 258° |
| 2026-04-24 00:50 | -4.79223 | -42.50498 | 8278 ft | 296 kts | 258° |
| 2026-04-24 00:51 | -4.79603 | -42.52484 | 7914 ft | 285 kts | 258° |
| 2026-04-24 00:51 | -4.79974 | -42.54422 | 7571 ft | 281 kts | 258° |
| 2026-04-24 00:51 | -4.80341 | -42.56340 | 7224 ft | 280 kts | 258° |
| 2026-04-24 00:51 | -4.80706 | -42.58247 | 6887 ft | 278 kts | 258° |
| 2026-04-24 00:52 | -4.81067 | -42.60138 | 6551 ft | 277 kts | 257° |
| 2026-04-24 00:52 | -4.81428 | -42.62031 | 6219 ft | 276 kts | 257° |
| 2026-04-24 00:52 | -4.81790 | -42.63919 | 5880 ft | 275 kts | 257° |
| 2026-04-24 00:52 | -4.82152 | -42.65807 | 5549 ft | 274 kts | 258° |
| 2026-04-24 00:53 | -4.82515 | -42.67697 | 5217 ft | 273 kts | 258° |
| 2026-04-24 00:53 | -4.82872 | -42.69563 | 4893 ft | 271 kts | 258° |
| 2026-04-24 00:53 | -4.83225 | -42.71412 | 4565 ft | 270 kts | 258° |
| 2026-04-24 00:53 | -4.83576 | -42.73251 | 4396 ft | 262 kts | 258° |
| 2026-04-24 00:54 | -4.83970 | -42.74992 | 4291 ft | 250 kts | 251° |
| 2026-04-24 00:54 | -4.84580 | -42.76584 | 4074 ft | 245 kts | 243° |
| 2026-04-24 00:54 | -4.85322 | -42.78115 | 3772 ft | 244 kts | 242° |
| 2026-04-24 00:54 | -4.86085 | -42.79634 | 3585 ft | 237 kts | 242° |
| 2026-04-24 00:55 | -4.86799 | -42.81068 | 3545 ft | 223 kts | 242° |
| 2026-04-24 00:55 | -4.87481 | -42.82449 | 3503 ft | 220 kts | 242° |
| 2026-04-24 00:55 | -4.88332 | -42.83709 | 3325 ft | 216 kts | 215° |
| 2026-04-24 00:55 | -4.89659 | -42.84282 | 3150 ft | 207 kts | 179° |
| 2026-04-24 00:56 | -4.91039 | -42.84173 | 3064 ft | 194 kts | 167° |
| 2026-04-24 00:56 | -4.92377 | -42.83912 | 2692 ft | 195 kts | 166° |
| 2026-04-24 00:56 | -4.93722 | -42.83688 | 2405 ft | 193 kts | 169° |
| 2026-04-24 00:56 | -4.95044 | -42.83533 | 2181 ft | 186 kts | 171° |
| 2026-04-24 00:57 | -4.96292 | -42.83410 | 1909 ft | 175 kts | 172° |
| 2026-04-24 00:57 | -4.97459 | -42.83293 | 1690 ft | 161 kts | 172° |
| 2026-04-24 00:57 | -4.99527 | -42.83074 | 1310 ft | 142 kts | 172° |
| 2026-04-24 00:58 | -5.00515 | -42.82965 | 1106 ft | 141 kts | 172° |
| 2026-04-24 00:58 | -5.01495 | -42.82854 | 888 ft | 141 kts | 173° |
| 2026-04-24 00:58 | -5.02465 | -42.82758 | 690 ft | 140 kts | 173° |
| 2026-04-24 00:58 | -5.03443 | -42.82649 | 545 ft | 140 kts | 173° |
| 2026-04-24 00:59 | -5.04403 | -42.82550 | 376 ft | 140 kts | 173° |
| 2026-04-24 00:59 | -5.05372 | -42.82442 | 218 ft | 136 kts | 174° |
| 2026-04-24 00:59 | -5.06146 | -42.82362 | 222 ft | 71 kts | 174° |
| 2026-04-24 00:59 | -5.06411 | -42.82336 | 225 ft | 26 kts | 175° |
| 2026-04-24 01:00 | -5.06556 | -42.82320 | 226 ft | 15 kts | 173° |
| 2026-04-24 01:00 | -5.06606 | -42.82283 | 227 ft | 7 kts | 110° |
| 2026-04-24 01:00 | -5.06598 | -42.82240 | 227 ft | 6 kts | 45° |
| 2026-04-24 01:00 | -5.06567 | -42.82215 | 227 ft | 4 kts | 38° |
| 2026-04-24 01:01 | -5.06538 | -42.82192 | 227 ft | 6 kts | 38° |
| 2026-04-24 01:01 | -5.06519 | -42.82171 | 227 ft | 4 kts | 65° |
| 2026-04-24 01:01 | -5.06519 | -42.82143 | 227 ft | 4 kts | 99° |
| 2026-04-24 01:01 | -5.06520 | -42.82110 | 227 ft | 4 kts | 86° |
| 2026-04-24 01:02 | -5.06518 | -42.82089 | 228 ft | 0 kts | 81° |
| 2026-04-24 01:02 | -5.06518 | -42.82084 | 228 ft | 0 kts | 82° |
| 2026-04-24 01:02 | -5.06517 | -42.82079 | 229 ft | 0 kts | 82° |